»·PEaware :: WAT380 KELP-KONT

WAT380 :: KELP-KONT

FLIGHT INFORMATION

Flight Status: Arrived
Operator:
Walker Air Transport
More flights by this operator :: More flights under this callsign
Pilot: Spencer M. (27733)
Aircraft: BOEING 767-300
(B763)
More flights by this aircraft type
Origin: KELP El Paso Intl
United States
Destination: KONT Ontario Intl
United States
More flights between these airports :: More routes between these airports
Route: ATKNN5 FLOGS TFD J169 KOFFA PHRED SCBBY2
File this flight plan on PilotEdge
Remarks:
Altitude:
(Current/Filed)
35,000ft
Speed:
(Current/Filed)
460kts
Departed: 15-Aug-22 08:30 AM
Arrived: 15-Aug-22 09:56 AM
Distance/Time
Traveled:
581nm/1:26
Distance/Time
To Go:
Arrived

Flight Plot

Page will automatically refresh every two minutes.

Flight plan parsing failed; only flown route is shown


Map Options




Map Legend


Flown Route
Filed Route
Departure Airport
Arrival Airport
Navaid (VOR, NDB)
Fix

Horizontal Profiles

Position Reports

Time Latitude Longitude Heading Altitude Ground
Speed
15-Aug-22 08:05 31.816042 -106.371297 140 3956ft 0kts
15-Aug-22 08:06 31.816042 -106.371297 140 3956ft 0kts
15-Aug-22 08:07 31.816042 -106.371297 140 3956ft 0kts
15-Aug-22 08:08 31.816042 -106.371297 140 3956ft 0kts
15-Aug-22 08:09 31.816042 -106.371297 140 3956ft 0kts
15-Aug-22 08:10 31.816042 -106.371297 140 3956ft 0kts
15-Aug-22 08:11 31.816042 -106.371297 140 3956ft 0kts
15-Aug-22 08:12 31.816042 -106.371297 140 3956ft 0kts
15-Aug-22 08:13 31.816042 -106.371297 140 3956ft 0kts
15-Aug-22 08:14 31.816042 -106.371297 140 3956ft 0kts
15-Aug-22 08:15 31.816042 -106.371297 140 3956ft 0kts
15-Aug-22 08:16 31.816042 -106.371297 140 3956ft 0kts
15-Aug-22 08:17 31.816042 -106.371297 140 3956ft 0kts
15-Aug-22 08:18 31.816042 -106.371297 140 3956ft 0kts
15-Aug-22 08:19 31.816042 -106.371297 140 3956ft 0kts
15-Aug-22 08:20 31.816042 -106.371297 140 3956ft 0kts
15-Aug-22 08:21 31.816284 -106.371546 127 3955ft 2kts
15-Aug-22 08:22 31.816403 -106.372210 73 3954ft 2kts
15-Aug-22 08:23 31.816265 -106.372516 49 3953ft 0kts
15-Aug-22 08:24 31.816265 -106.372516 49 3953ft 0kts
15-Aug-22 08:25 31.816307 -106.372491 24 3953ft 1kts
15-Aug-22 08:26 31.818247 -106.372789 52 3953ft 18kts
15-Aug-22 08:27 31.820249 -106.371783 322 3954ft 0kts
15-Aug-22 08:28 31.820495 -106.372007 322 3953ft 6kts
15-Aug-22 08:29 31.813851 -106.382723 231 3936ft 141kts
15-Aug-22 08:30 31.781838 -106.438384 242 5203ft 233kts
15-Aug-22 08:31 31.771586 -106.520293 302 7757ft 285kts
15-Aug-22 08:32 31.809467 -106.596483 285 10449ft 317kts
15-Aug-22 08:33 31.830291 -106.709333 282 13117ft 368kts
15-Aug-22 08:34 31.852377 -106.829941 281 16596ft 386kts
15-Aug-22 08:35 31.875180 -106.955720 281 19834ft 402kts
15-Aug-22 08:36 31.898947 -107.087544 281 22835ft 417kts
15-Aug-22 08:37 31.923461 -107.224402 281 25623ft 431kts
15-Aug-22 08:38 31.948537 -107.365269 282 28132ft 442kts
15-Aug-22 08:39 31.974061 -107.509649 282 30307ft 453kts
15-Aug-22 08:40 31.999884 -107.656780 282 32454ft 454kts
15-Aug-22 08:41 32.025367 -107.802964 282 34277ft 450kts
15-Aug-22 08:42 32.050341 -107.947264 282 35876ft 442kts
15-Aug-22 08:43 32.075171 -108.091743 282 36149ft 454kts
15-Aug-22 08:44 32.100643 -108.241092 282 36162ft 469kts
15-Aug-22 08:45 32.126226 -108.392204 282 36166ft 467kts
15-Aug-22 08:46 32.151443 -108.542292 282 36165ft 466kts
15-Aug-22 08:47 32.176499 -108.692559 281 36165ft 466kts
15-Aug-22 08:48 32.201490 -108.843593 281 36165ft 466kts
15-Aug-22 08:49 32.226132 -108.993675 281 36163ft 465kts
15-Aug-22 08:50 32.250497 -109.143212 281 36139ft 465kts
15-Aug-22 08:51 32.284221 -109.290388 286 36128ft 463kts
15-Aug-22 08:52 32.319717 -109.437376 286 36127ft 463kts
15-Aug-22 08:53 32.355078 -109.584901 286 36115ft 463kts
15-Aug-22 08:54 32.390217 -109.732356 285 36103ft 463kts
15-Aug-22 08:55 32.425167 -109.879842 285 36088ft 462kts
15-Aug-22 08:56 32.460104 -110.028102 285 36064ft 462kts
15-Aug-22 08:57 32.494528 -110.175054 285 36045ft 463kts
15-Aug-22 08:58 32.528660 -110.321582 285 36045ft 463kts
15-Aug-22 08:59 32.562851 -110.469220 284 36045ft 463kts
15-Aug-22 09:00 32.596901 -110.617102 284 36044ft 462kts
15-Aug-22 09:01 32.630786 -110.765131 284 36045ft 462kts
15-Aug-22 09:02 32.664488 -110.913232 283 36043ft 463kts
15-Aug-22 09:03 32.698098 -111.061825 283 36015ft 463kts
15-Aug-22 09:04 32.731598 -111.210809 283 36000ft 463kts
15-Aug-22 09:05 32.764718 -111.358997 283 36000ft 463kts
15-Aug-22 09:06 32.797900 -111.508357 283 35999ft 463kts
15-Aug-22 09:07 32.830835 -111.657515 282 35999ft 462kts
15-Aug-22 09:08 32.863431 -111.806016 282 36001ft 463kts
15-Aug-22 09:09 32.903620 -111.951923 294 35995ft 466kts
15-Aug-22 09:10 32.960378 -112.091143 293 35966ft 465kts
15-Aug-22 09:11 33.017116 -112.230705 293 35964ft 466kts
15-Aug-22 09:12 33.073727 -112.370493 293 35964ft 465kts
15-Aug-22 09:13 33.130116 -112.510299 293 35961ft 466kts
15-Aug-22 09:14 33.186301 -112.650148 293 35960ft 465kts
15-Aug-22 09:15 33.242117 -112.789671 293 35962ft 465kts
15-Aug-22 09:16 33.298246 -112.930538 293 35954ft 465kts
15-Aug-22 09:19 33.463421 -113.352508 287 35946ft 464kts
15-Aug-22 09:20 33.500034 -113.501932 285 35960ft 464kts
15-Aug-22 09:21 33.535567 -113.651493 284 35969ft 465kts
15-Aug-22 09:22 33.570864 -113.801177 284 35981ft 465kts
15-Aug-22 09:23 33.606050 -113.951296 284 35990ft 466kts
15-Aug-22 09:24 33.641088 -114.101903 283 35962ft 466kts
15-Aug-22 09:25 33.659087 -114.256054 276 35910ft 464kts
15-Aug-22 09:26 33.674397 -114.410512 276 35907ft 464kts
15-Aug-22 09:27 33.689392 -114.564427 276 35907ft 462kts
15-Aug-22 09:28 33.703999 -114.716298 275 35889ft 437kts
15-Aug-22 09:29 33.717597 -114.859594 275 35912ft 433kts
15-Aug-22 09:30 33.731006 -115.002624 275 35899ft 416kts
15-Aug-22 09:31 33.743865 -115.141577 276 34544ft 418kts
15-Aug-22 09:32 33.757886 -115.282428 276 32616ft 425kts
15-Aug-22 09:33 33.772333 -115.425117 277 30632ft 433kts
15-Aug-22 09:34 33.786963 -115.566435 276 28649ft 419kts
15-Aug-22 09:35 33.800975 -115.704699 276 26729ft 410kts
15-Aug-22 09:36 33.814370 -115.838800 276 24856ft 400kts
15-Aug-22 09:37 33.827290 -115.969653 276 23034ft 390kts
15-Aug-22 09:38 33.839811 -116.097851 276 21247ft 380kts
15-Aug-22 09:39 33.852451 -116.223198 277 19326ft 374kts
15-Aug-22 09:40 33.865354 -116.345827 278 17478ft 367kts
15-Aug-22 09:41 33.879689 -116.465170 287 15837ft 355kts
15-Aug-22 09:42 33.907872 -116.578148 288 14280ft 350kts
15-Aug-22 09:43 33.935863 -116.689095 288 12548ft 342kts
15-Aug-22 09:44 33.946585 -116.798254 268 11303ft 313kts
15-Aug-22 09:45 33.943290 -116.901047 268 10150ft 299kts
15-Aug-22 09:46 33.953753 -116.998120 292 9071ft 296kts
15-Aug-22 09:47 33.985249 -117.089244 292 7689ft 291kts
15-Aug-22 09:48 34.016018 -117.178748 287 6382ft 278kts
15-Aug-22 09:49 34.035720 -117.267962 284 5483ft 245kts
15-Aug-22 09:50 34.052296 -117.344928 284 4590ft 231kts
15-Aug-22 09:51 34.054775 -117.417183 270 3708ft 195kts
15-Aug-22 09:52 34.054913 -117.475860 270 2669ft 156kts
15-Aug-22 09:53 34.054925 -117.528401 271 1847ft 154kts
15-Aug-22 09:54 34.054937 -117.579911 272 1043ft 151kts
15-Aug-22 09:55 34.054569 -117.611666 227 938ft 18kts
15-Aug-22 09:56 34.053822 -117.608334 89 933ft 22kts
15-Aug-22 09:57 34.053312 -117.602510 154 928ft 2kts
15-Aug-22 09:58 34.051651 -117.601444 122 916ft 3kts
15-Aug-22 09:59 34.051978 -117.600863 42 918ft 0kts
15-Aug-22 10:00 34.051978 -117.600863 42 918ft 0kts
15-Aug-22 10:01 34.051978 -117.600863 42 918ft 0kts
15-Aug-22 10:02 34.051978 -117.600863 42 918ft 0kts
15-Aug-22 10:03 34.051978 -117.600863 42 918ft 0kts
15-Aug-22 10:04 34.051978 -117.600863 42 918ft 0kts

Navigation Log

Ident Type
Flight plan parsing failed, navigation log unavailable